sensor_id;sensor_type;location;lat;lon;timestamp;pressure;altitude;pressure_sealevel;temperature;humidity
68199;BME280;55021;51.554;17.044;2023-07-02T00:12:10;99410.56;;;20.25;57.97
68199;BME280;55021;51.554;17.044;2023-07-02T00:27:19;99405.78;;;20.54;56.30
68199;BME280;55021;51.554;17.044;2023-07-02T00:42:21;99395.19;;;20.63;56.56
68199;BME280;55021;51.554;17.044;2023-07-02T00:57:25;99403.91;;;20.21;57.97
68199;BME280;55021;51.554;17.044;2023-07-02T01:12:29;99357.56;;;20.02;58.02
68199;BME280;55021;51.554;17.044;2023-07-02T01:27:34;99399.31;;;19.65;60.51
68199;BME280;55021;51.554;17.044;2023-07-02T01:42:37;99408.53;;;20.54;59.60
68199;BME280;55021;51.554;17.044;2023-07-02T01:57:39;99383.19;;;20.02;60.24
68199;BME280;55021;51.554;17.044;2023-07-02T02:12:45;99352.75;;;19.92;60.69
68199;BME280;55021;51.554;17.044;2023-07-02T02:27:47;99413.50;;;19.46;66.95
68199;BME280;55021;51.554;17.044;2023-07-02T02:42:50;99426.03;;;19.14;71.16
68199;BME280;55021;51.554;17.044;2023-07-02T02:57:53;99424.88;;;18.75;73.90
68199;BME280;55021;51.554;17.044;2023-07-02T03:12:55;99435.63;;;18.76;73.65
68199;BME280;55021;51.554;17.044;2023-07-02T03:27:58;99428.03;;;19.30;70.77
68199;BME280;55021;51.554;17.044;2023-07-02T03:43:04;99431.59;;;19.30;71.16
68199;BME280;55021;51.554;17.044;2023-07-02T03:58:07;99454.63;;;19.69;70.66
68199;BME280;55021;51.554;17.044;2023-07-02T04:13:10;99456.69;;;19.34;72.13
68199;BME280;55021;51.554;17.044;2023-07-02T04:28:12;99471.03;;;19.64;71.12
68199;BME280;55021;51.554;17.044;2023-07-02T04:43:15;99471.13;;;19.69;71.71
68199;BME280;55021;51.554;17.044;2023-07-02T04:58:17;99469.38;;;19.91;70.12
68199;BME280;55021;51.554;17.044;2023-07-02T05:13:20;99471.53;;;19.61;71.55
68199;BME280;55021;51.554;17.044;2023-07-02T05:28:25;99513.44;;;20.53;68.78
68199;BME280;55021;51.554;17.044;2023-07-02T05:43:28;99497.94;;;20.97;66.97
68199;BME280;55021;51.554;17.044;2023-07-02T05:58:30;99515.28;;;20.97;65.95
68199;BME280;55021;51.554;17.044;2023-07-02T06:13:32;99538.22;;;20.53;67.61
68199;BME280;55021;51.554;17.044;2023-07-02T06:28:35;99513.88;;;20.45;66.94
68199;BME280;55021;51.554;17.044;2023-07-02T06:43:37;99534.25;;;20.04;68.20
68199;BME280;55021;51.554;17.044;2023-07-02T06:58:41;99546.69;;;20.35;68.50
68199;BME280;55021;51.554;17.044;2023-07-02T07:13:44;99556.75;;;21.24;64.96
68199;BME280;55021;51.554;17.044;2023-07-02T07:28:47;99545.38;;;22.29;61.29
68199;BME280;55021;51.554;17.044;2023-07-02T07:43:50;99578.66;;;22.17;60.00
68199;BME280;55021;51.554;17.044;2023-07-02T07:58:53;99588.47;;;21.81;60.05
68199;BME280;55021;51.554;17.044;2023-07-02T08:13:57;99544.16;;;22.68;56.15
68199;BME280;55021;51.554;17.044;2023-07-02T08:28:59;99569.97;;;23.62;52.06
68199;BME280;55021;51.554;17.044;2023-07-02T08:44:02;99532.00;;;23.48;52.17
68199;BME280;55021;51.554;17.044;2023-07-02T08:59:07;99604.88;;;24.20;47.15
68199;BME280;55021;51.554;17.044;2023-07-02T09:14:09;99601.38;;;24.55;47.56
68199;BME280;55021;51.554;17.044;2023-07-02T09:29:12;99614.56;;;24.23;46.28
68199;BME280;55021;51.554;17.044;2023-07-02T09:44:16;99573.72;;;23.36;47.67
68199;BME280;55021;51.554;17.044;2023-07-02T09:59:19;99615.06;;;24.00;46.56
68199;BME280;55021;51.554;17.044;2023-07-02T10:14:22;99559.28;;;24.78;44.58
68199;BME280;55021;51.554;17.044;2023-07-02T10:29:25;99594.50;;;23.86;48.30
68199;BME280;55021;51.554;17.044;2023-07-02T10:44:27;99578.16;;;25.17;44.34
68199;BME280;55021;51.554;17.044;2023-07-02T10:59:30;99562.59;;;25.11;43.45
68199;BME280;55021;51.554;17.044;2023-07-02T11:14:33;99574.78;;;24.64;45.83
68199;BME280;55021;51.554;17.044;2023-07-02T11:29:36;99576.03;;;23.59;46.71
68199;BME280;55021;51.554;17.044;2023-07-02T11:44:40;99585.31;;;24.67;45.09
68199;BME280;55021;51.554;17.044;2023-07-02T11:59:42;99583.25;;;24.27;41.50
68199;BME280;55021;51.554;17.044;2023-07-02T12:14:45;99582.25;;;24.59;40.54
68199;BME280;55021;51.554;17.044;2023-07-02T12:29:47;99602.72;;;24.38;41.45
68199;BME280;55021;51.554;17.044;2023-07-02T12:44:50;99595.28;;;24.48;40.68
68199;BME280;55021;51.554;17.044;2023-07-02T12:59:52;99609.75;;;25.01;38.27
68199;BME280;55021;51.554;17.044;2023-07-02T13:14:55;99623.69;;;23.61;38.55
68199;BME280;55021;51.554;17.044;2023-07-02T13:29:58;99679.44;;;24.37;39.70
68199;BME280;55021;51.554;17.044;2023-07-02T13:45:01;99686.31;;;23.41;40.27
68199;BME280;55021;51.554;17.044;2023-07-02T14:00:04;99699.00;;;22.78;39.88
68199;BME280;55021;51.554;17.044;2023-07-02T14:15:08;99744.59;;;21.77;44.16
68199;BME280;55021;51.554;17.044;2023-07-02T14:30:12;99757.03;;;22.35;45.78
68199;BME280;55021;51.554;17.044;2023-07-02T14:45:14;99743.47;;;23.25;45.72
68199;BME280;55021;51.554;17.044;2023-07-02T15:00:17;99738.59;;;22.84;43.66
68199;BME280;55021;51.554;17.044;2023-07-02T15:15:20;99738.97;;;23.19;43.71
68199;BME280;55021;51.554;17.044;2023-07-02T15:30:24;99700.03;;;23.26;42.99
68199;BME280;55021;51.554;17.044;2023-07-02T15:45:45;99728.06;;;23.34;42.44
68199;BME280;55021;51.554;17.044;2023-07-02T16:01:08;99742.38;;;22.78;42.91
68199;BME280;55021;51.554;17.044;2023-07-02T16:16:28;99675.34;;;21.79;44.93
68199;BME280;55021;51.554;17.044;2023-07-02T16:31:31;99690.53;;;22.20;43.56
68199;BME280;55021;51.554;17.044;2023-07-02T16:46:39;99745.34;;;22.71;44.49
68199;BME280;55021;51.554;17.044;2023-07-02T17:01:44;99764.06;;;22.42;45.24
68199;BME280;55021;51.554;17.044;2023-07-02T17:16:49;99782.56;;;22.25;45.96
68199;BME280;55021;51.554;17.044;2023-07-02T17:31:54;99780.19;;;21.62;46.64
68199;BME280;55021;51.554;17.044;2023-07-02T17:46:58;99794.56;;;21.48;47.31
68199;BME280;55021;51.554;17.044;2023-07-02T18:02:04;99793.63;;;21.70;47.46
68199;BME280;55021;51.554;17.044;2023-07-02T18:17:23;99788.75;;;21.32;47.43
68199;BME280;55021;51.554;17.044;2023-07-02T18:32:25;99772.50;;;21.48;46.96
68199;BME280;55021;51.554;17.044;2023-07-02T18:47:28;99830.53;;;21.24;48.68
68199;BME280;55021;51.554;17.044;2023-07-02T19:02:31;99848.84;;;21.02;49.15
68199;BME280;55021;51.554;17.044;2023-07-02T19:17:35;99872.28;;;20.65;51.11
68199;BME280;55021;51.554;17.044;2023-07-02T19:32:39;99893.44;;;20.76;50.35
68199;BME280;55021;51.554;17.044;2023-07-02T19:47:53;99908.09;;;20.18;52.83
68199;BME280;55021;51.554;17.044;2023-07-02T20:03:07;99913.69;;;18.75;56.11
68199;BME280;55021;51.554;17.044;2023-07-02T20:18:11;99929.75;;;19.44;53.88
68199;BME280;55021;51.554;17.044;2023-07-02T20:33:18;99903.16;;;19.26;53.23
68199;BME280;55021;51.554;17.044;2023-07-02T20:48:40;99951.00;;;19.00;56.09
68199;BME280;55021;51.554;17.044;2023-07-02T21:03:42;99940.22;;;18.44;56.32
68199;BME280;55021;51.554;17.044;2023-07-02T21:18:49;99966.81;;;17.88;56.96
68199;BME280;55021;51.554;17.044;2023-07-02T21:33:52;99982.28;;;17.38;58.13
68199;BME280;55021;51.554;17.044;2023-07-02T21:49:01;99966.25;;;17.35;58.01
68199;BME280;55021;51.554;17.044;2023-07-02T22:04:12;99964.13;;;17.81;56.00
68199;BME280;55021;51.554;17.044;2023-07-02T22:19:33;99966.09;;;17.17;57.85
68199;BME280;55021;51.554;17.044;2023-07-02T22:34:53;100014.06;;;17.39;57.16
68199;BME280;55021;51.554;17.044;2023-07-02T22:50:07;100029.41;;;16.96;60.33
68199;BME280;55021;51.554;17.044;2023-07-02T23:05:10;99977.00;;;16.46;61.36
68199;BME280;55021;51.554;17.044;2023-07-02T23:20:14;99985.34;;;15.59;65.58
68199;BME280;55021;51.554;17.044;2023-07-02T23:35:16;99954.09;;;14.74;67.96
68199;BME280;55021;51.554;17.044;2023-07-02T23:50:22;100022.81;;;14.84;70.56
